createdAt,value
2023-02-24T00:02:00.096Z,72.93
2023-02-24T00:04:30.212Z,72.62
2023-02-24T00:06:57.715Z,73.02
2023-02-24T00:09:27.498Z,72.72
2023-02-24T00:12:02.243Z,73.06
2023-02-24T00:14:34.063Z,73.15
2023-02-24T00:17:04.639Z,73.24
2023-02-24T00:19:32.824Z,73.23
2023-02-24T00:22:01.544Z,73.18
2023-02-24T00:24:29.832Z,73.46
2023-02-24T00:27:01.098Z,73.69
2023-02-24T00:29:30.016Z,73.78
2023-02-24T00:32:02.410Z,73.91
2023-02-24T00:34:33.920Z,74.20
2023-02-24T00:37:02.065Z,73.72
2023-02-24T00:39:30.855Z,73.45
2023-02-24T00:42:04.722Z,73.75
2023-02-24T00:44:35.323Z,73.27
2023-02-24T00:47:05.055Z,73.97
2023-02-24T00:49:33.245Z,74.08
2023-02-24T00:52:00.450Z,74.13
2023-02-24T00:54:28.498Z,74.02
2023-02-24T00:56:57.061Z,74.21
2023-02-24T00:59:24.552Z,74.10
2023-02-24T01:01:52.331Z,73.90
2023-02-24T01:04:20.157Z,74.14
2023-02-24T01:07:00.123Z,74.11
2023-02-24T01:09:30.885Z,74.06
2023-02-24T01:12:18.191Z,74.14
2023-02-24T01:14:48.233Z,73.86
2023-02-24T01:17:18.339Z,73.85
2023-02-24T01:19:49.153Z,74.03
2023-02-24T01:22:18.834Z,74.29
2023-02-24T01:24:47.206Z,74.87
2023-02-24T01:27:18.842Z,74.51
2023-02-24T01:29:47.883Z,74.74
2023-02-24T01:32:21.224Z,74.97
2023-02-24T01:34:52.790Z,74.79
2023-02-24T01:37:21.231Z,74.86
2023-02-24T01:39:49.026Z,75.30
2023-02-24T01:42:19.868Z,75.45
2023-02-24T01:44:48.162Z,75.12
2023-02-24T01:47:21.958Z,75.18
2023-02-24T01:49:54.077Z,75.74
2023-02-24T01:52:30.609Z,75.52
2023-02-24T01:55:29.353Z,75.34
2023-02-24T01:57:58.486Z,75.05
2023-02-24T02:00:38.034Z,75.46
2023-02-24T02:03:16.166Z,75.54
2023-02-24T02:05:45.325Z,76.08
2023-02-24T02:08:13.734Z,75.80
2023-02-24T02:10:44.409Z,76.02
2023-02-24T02:13:21.240Z,75.89
2023-02-24T02:16:15.180Z,76.00
2023-02-24T02:18:51.050Z,76.49
2023-02-24T02:21:44.367Z,76.51
2023-02-24T02:24:37.506Z,76.76
2023-02-24T02:27:21.080Z,76.80
2023-02-24T02:30:43.956Z,76.67
2023-02-24T02:34:00.496Z,76.94
2023-02-24T02:36:50.567Z,77.22
2023-02-24T02:39:43.265Z,77.35
2023-02-24T02:42:36.041Z,77.63
2023-02-24T02:45:13.366Z,77.69
2023-02-24T02:48:07.051Z,78.17
2023-02-24T02:50:55.010Z,78.90
2023-02-24T02:53:41.287Z,78.72
2023-02-24T02:56:30.703Z,78.84
2023-02-24T02:58:59.798Z,79.96
2023-02-24T03:01:37.678Z,80.15
2023-02-24T03:04:08.542Z,80.50
2023-02-24T03:06:45.158Z,80.77
2023-02-24T03:09:29.475Z,80.72
2023-02-24T03:12:08.001Z,81.76
2023-02-24T03:14:46.106Z,82.66
2023-02-24T03:17:21.815Z,83.44
2023-02-24T03:20:01.394Z,84.19
2023-02-24T03:22:37.549Z,84.37
2023-02-24T03:25:06.315Z,84.81
2023-02-24T03:27:53.276Z,85.72
2023-02-24T03:30:44.397Z,86.96
2023-02-24T03:33:35.009Z,87.27
2023-02-24T03:36:02.163Z,87.43
2023-02-24T03:38:33.113Z,88.13
2023-02-24T03:41:00.353Z,89.01
2023-02-24T03:43:32.592Z,89.31
2023-02-24T03:46:01.409Z,89.48
2023-02-24T03:48:29.220Z,89.83
2023-02-24T03:50:56.767Z,89.83
2023-02-24T03:54:05.690Z,90.73
2023-02-24T03:57:00.192Z,91.65
2023-02-24T03:59:52.971Z,91.51
2023-02-24T04:02:30.261Z,92.17
2023-02-24T04:05:09.901Z,92.80
2023-02-24T04:08:07.215Z,93.36
2023-02-24T04:11:05.280Z,93.42
2023-02-24T04:13:47.954Z,93.60
2023-02-24T04:16:28.941Z,94.31
2023-02-24T04:19:14.062Z,95.14
2023-02-24T04:21:45.357Z,94.63
2023-02-24T04:24:15.974Z,95.32
2023-02-24T04:26:46.837Z,95.83
2023-02-24T04:29:23.372Z,96.03
2023-02-24T04:32:01.155Z,95.69
2023-02-24T04:34:32.457Z,96.01
2023-02-24T04:37:02.377Z,95.70
2023-02-24T04:39:31.292Z,95.94
2023-02-24T04:42:01.730Z,96.03
2023-02-24T04:44:29.217Z,96.64
2023-02-24T04:46:56.625Z,96.80
2023-02-24T04:49:23.664Z,96.51
2023-02-24T04:51:51.657Z,97.38
2023-02-24T04:54:21.265Z,97.83
2023-02-24T04:56:51.101Z,97.73
2023-02-24T04:59:20.209Z,97.77
2023-02-24T05:01:47.683Z,98.24
2023-02-24T05:04:15.175Z,98.23
2023-02-24T05:06:43.994Z,98.45
2023-02-24T05:09:14.648Z,98.30
2023-02-24T05:11:48.978Z,98.60
2023-02-24T05:14:20.891Z,98.80
2023-02-24T05:16:49.443Z,98.72
2023-02-24T05:19:38.630Z,99.10
2023-02-24T05:22:07.300Z,99.74
2023-02-24T05:24:35.017Z,99.55
2023-02-24T05:27:03.937Z,99.42
2023-02-24T05:29:35.463Z,99.41
2023-02-24T05:32:04.728Z,99.38
2023-02-24T05:34:33.612Z,100.00
2023-02-24T05:37:07.484Z,100.00
2023-02-24T05:39:35.153Z,100.00
2023-02-24T05:42:06.691Z,100.00
2023-02-24T05:44:35.676Z,100.00
2023-02-24T05:47:05.475Z,100.00
2023-02-24T05:49:35.274Z,100.00
2023-02-24T05:52:08.975Z,100.00
2023-02-24T05:54:43.995Z,100.00
2023-02-24T05:57:15.400Z,100.00
2023-02-24T05:59:44.716Z,99.99
2023-02-24T06:02:15.891Z,100.00
2023-02-24T06:04:51.153Z,100.00
2023-02-24T06:07:24.728Z,100.00
2023-02-24T06:09:56.670Z,100.00
2023-02-24T06:12:30.915Z,100.00
2023-02-24T06:14:58.439Z,100.00
2023-02-24T06:17:26.445Z,100.00
2023-02-24T06:19:54.461Z,100.00
2023-02-24T06:22:25.119Z,100.00
2023-02-24T06:24:54.855Z,100.00
2023-02-24T06:27:24.881Z,100.00
2023-02-24T06:29:54.969Z,100.00
2023-02-24T06:32:25.708Z,100.00
2023-02-24T06:34:54.135Z,100.00
2023-02-24T06:37:23.048Z,100.00
2023-02-24T06:39:50.919Z,100.00
2023-02-24T06:42:18.077Z,100.00
2023-02-24T06:44:45.355Z,100.00
2023-02-24T06:47:14.545Z,100.00
2023-02-24T06:49:42.968Z,100.00
2023-02-24T06:52:11.759Z,100.00
2023-02-24T06:54:39.058Z,100.00
2023-02-24T06:57:06.454Z,100.00
2023-02-24T06:59:34.317Z,100.00
2023-02-24T07:02:03.429Z,100.00
2023-02-24T07:04:30.694Z,100.00
2023-02-24T07:07:03.349Z,100.00
2023-02-24T07:09:32.209Z,100.00
2023-02-24T07:12:02.662Z,100.00
2023-02-24T07:14:31.474Z,100.00
2023-02-24T07:16:59.665Z,100.00
2023-02-24T07:19:32.362Z,100.00
2023-02-24T07:22:03.258Z,100.00
2023-02-24T07:24:36.713Z,100.00
2023-02-24T07:27:22.311Z,100.00
2023-02-24T07:29:53.238Z,100.00
2023-02-24T07:32:23.123Z,100.00
2023-02-24T07:34:50.251Z,100.00
2023-02-24T07:37:17.307Z,100.00
2023-02-24T07:39:44.311Z,100.00
2023-02-24T07:42:15.427Z,100.00
2023-02-24T07:44:44.606Z,100.00
2023-02-24T07:47:11.866Z,100.00
2023-02-24T07:49:40.967Z,100.00
2023-02-24T07:52:08.919Z,100.00
2023-02-24T07:54:37.341Z,100.00
2023-02-24T07:57:06.531Z,100.00
2023-02-24T07:59:37.843Z,100.00
2023-02-24T08:02:07.819Z,100.00
2023-02-24T08:04:36.445Z,100.00
2023-02-24T08:07:04.413Z,100.00
2023-02-24T08:09:46.480Z,100.00
2023-02-24T08:12:22.592Z,100.00
2023-02-24T08:14:53.400Z,100.00
2023-02-24T08:17:24.198Z,100.00
2023-02-24T08:20:29.052Z,100.00
2023-02-24T08:22:56.657Z,100.00
2023-02-24T08:25:35.843Z,100.00
2023-02-24T08:28:09.699Z,100.00
2023-02-24T08:30:46.761Z,100.00
2023-02-24T08:33:22.062Z,100.00
2023-02-24T08:36:01.110Z,100.00
2023-02-24T08:38:41.993Z,100.00
2023-02-24T08:41:21.093Z,100.00
2023-02-24T08:43:49.756Z,100.00
2023-02-24T08:46:26.841Z,100.00
2023-02-24T08:49:01.145Z,100.00
2023-02-24T08:51:34.591Z,100.00
2023-02-24T08:54:11.380Z,100.00
2023-02-24T08:56:43.778Z,100.00
2023-02-24T08:59:29.187Z,100.00
2023-02-24T09:02:18.370Z,100.00
2023-02-24T09:04:47.613Z,100.00
2023-02-24T09:07:21.735Z,100.00
2023-02-24T09:09:49.883Z,100.00
2023-02-24T09:12:24.974Z,100.00
2023-02-24T09:15:01.945Z,100.00
2023-02-24T09:17:40.288Z,100.00
2023-02-24T09:20:25.890Z,100.00
2023-02-24T09:23:03.428Z,100.00
2023-02-24T09:25:44.071Z,100.00
2023-02-24T09:28:17.844Z,100.00
2023-02-24T09:30:51.430Z,100.00
2023-02-24T09:33:24.589Z,100.00
2023-02-24T09:36:10.826Z,100.00
2023-02-24T09:38:58.696Z,100.00
2023-02-24T09:42:18.121Z,100.00
2023-02-24T09:44:55.766Z,100.00
2023-02-24T09:47:55.686Z,100.00
2023-02-24T09:50:55.503Z,100.00
2023-02-24T09:53:18.540Z,100.00
2023-02-24T09:56:05.698Z,100.00
2023-02-24T09:58:48.104Z,100.00
2023-02-24T10:01:53.240Z,99.85
2023-02-24T10:05:10.413Z,99.93
2023-02-24T10:07:43.966Z,100.00
2023-02-24T10:10:28.443Z,99.77
2023-02-24T10:13:30.419Z,99.10
2023-02-24T10:16:07.134Z,100.00
2023-02-24T10:19:15.259Z,99.90
2023-02-24T10:22:03.330Z,100.00
2023-02-24T10:24:59.171Z,100.00
2023-02-24T10:28:23.251Z,100.00
2023-02-24T10:31:01.705Z,99.45
2023-02-24T10:33:39.056Z,99.34
2023-02-24T10:36:17.300Z,99.26
2023-02-24T10:38:45.793Z,99.50
2023-02-24T10:41:16.844Z,98.89
2023-02-24T10:43:57.569Z,97.75
2023-02-24T10:46:41.153Z,98.04
2023-02-24T10:49:16.534Z,97.83
2023-02-24T10:51:52.444Z,97.94
2023-02-24T10:54:45.210Z,98.52
2023-02-24T10:57:18.809Z,98.77
2023-02-24T11:00:35.627Z,98.32
2023-02-24T11:03:10.691Z,97.58
2023-02-24T11:06:04.178Z,97.32
2023-02-24T11:08:39.584Z,96.21
2023-02-24T11:11:29.760Z,96.01
2023-02-24T11:14:20.573Z,95.56
2023-02-24T11:17:13.902Z,95.10
2023-02-24T11:20:01.769Z,94.54
2023-02-24T11:22:41.554Z,93.86
2023-02-24T11:25:27.003Z,93.38
2023-02-24T11:27:56.658Z,93.41
2023-02-24T11:30:46.220Z,93.83
2023-02-24T11:33:27.829Z,93.56
2023-02-24T11:36:25.191Z,92.97
2023-02-24T11:39:22.730Z,92.67
2023-02-24T11:41:55.580Z,92.23
2023-02-24T11:45:07.290Z,92.29
2023-02-24T11:47:53.010Z,91.71
2023-02-24T11:50:52.270Z,91.42
2023-02-24T11:53:41.214Z,90.32
2023-02-24T11:56:38.365Z,89.40
2023-02-24T11:59:36.411Z,89.09
2023-02-24T12:02:16.869Z,88.32
2023-02-24T12:05:13.575Z,87.94
2023-02-24T12:07:48.749Z,88.37
2023-02-24T12:10:31.533Z,87.58
2023-02-24T12:14:00.804Z,87.63
2023-02-24T12:16:38.124Z,86.99
2023-02-24T12:19:27.728Z,86.69
2023-02-24T12:22:11.356Z,86.45
2023-02-24T12:24:49.958Z,86.96
2023-02-24T12:27:41.279Z,87.12
2023-02-24T12:30:49.024Z,87.70
2023-02-24T12:33:44.890Z,88.10
2023-02-24T12:36:45.483Z,86.16
2023-02-24T12:39:39.644Z,84.37
2023-02-24T12:42:51.553Z,84.17
2023-02-24T12:45:33.950Z,84.34
2023-02-24T12:48:28.131Z,84.37
2023-02-24T12:51:06.037Z,83.49
2023-02-24T12:54:06.786Z,83.27
2023-02-24T12:56:40.915Z,83.67
2023-02-24T12:59:11.561Z,83.48
2023-02-24T13:02:03.401Z,83.21
2023-02-24T13:05:19.905Z,82.96
2023-02-24T13:08:23.790Z,82.19
2023-02-24T13:10:59.492Z,81.56
2023-02-24T13:14:07.394Z,81.57
2023-02-24T13:16:36.183Z,81.32
2023-02-24T13:19:28.115Z,81.20
2023-02-24T13:22:13.276Z,81.42
2023-02-24T13:25:07.691Z,81.46
2023-02-24T13:27:42.746Z,81.08
2023-02-24T13:30:30.509Z,80.85
2023-02-24T13:33:36.029Z,81.16
2023-02-24T13:36:14.837Z,81.26
2023-02-24T13:38:48.274Z,81.61
2023-02-24T13:41:27.525Z,81.59
2023-02-24T13:44:04.438Z,80.96
2023-02-24T13:47:13.346Z,80.68
2023-02-24T13:50:19.728Z,81.30
2023-02-24T13:52:58.810Z,80.80
2023-02-24T13:56:02.774Z,80.14
2023-02-24T13:59:05.245Z,80.09
2023-02-24T14:01:45.676Z,80.20
2023-02-24T14:04:24.462Z,79.99
2023-02-24T14:07:18.880Z,80.89
2023-02-24T14:09:52.336Z,80.46
2023-02-24T14:12:28.764Z,79.98
2023-02-24T14:14:57.244Z,80.18
2023-02-24T14:17:36.577Z,79.61
2023-02-24T14:20:14.347Z,79.40
2023-02-24T14:22:53.198Z,79.62
2023-02-24T14:25:25.094Z,79.15
2023-02-24T14:27:55.726Z,79.33
2023-02-24T14:30:31.467Z,78.91
2023-02-24T14:32:59.213Z,79.36
2023-02-24T14:35:47.448Z,79.31
2023-02-24T14:38:43.934Z,78.94
2023-02-24T14:41:25.110Z,78.86
2023-02-24T14:43:53.127Z,79.11
2023-02-24T14:46:21.019Z,78.41
2023-02-24T14:48:55.222Z,77.62
2023-02-24T14:51:37.445Z,78.28
2023-02-24T14:54:14.213Z,78.98
2023-02-24T14:56:41.620Z,79.33
2023-02-24T14:59:38.350Z,79.45
2023-02-24T15:02:20.587Z,81.31
2023-02-24T15:04:48.363Z,77.55
2023-02-24T15:07:21.371Z,74.90
2023-02-24T15:09:51.785Z,73.09
2023-02-24T15:12:43.648Z,71.66
2023-02-24T15:15:35.098Z,70.73
2023-02-24T15:18:17.506Z,69.87
2023-02-24T15:20:44.624Z,69.04
2023-02-24T15:23:34.932Z,67.86
2023-02-24T15:26:02.660Z,67.71
2023-02-24T15:28:33.998Z,68.18
2023-02-24T15:31:03.322Z,68.49
2023-02-24T15:33:44.557Z,69.40
2023-02-24T15:36:18.924Z,69.82
2023-02-24T15:38:46.749Z,69.07
2023-02-24T15:41:14.835Z,68.84
2023-02-24T15:43:47.940Z,61.40
2023-02-24T15:46:19.586Z,62.92
2023-02-24T15:48:49.803Z,64.01
2023-02-24T15:51:45.021Z,65.06
2023-02-24T15:54:24.829Z,66.33
2023-02-24T15:56:51.901Z,67.11
2023-02-24T15:59:21.953Z,68.00
2023-02-24T16:01:49.242Z,68.52
2023-02-24T16:04:16.335Z,68.65
2023-02-24T16:06:54.751Z,68.74
2023-02-24T16:09:36.685Z,69.97
2023-02-24T16:12:16.374Z,70.73
2023-02-24T16:14:44.675Z,70.90
2023-02-24T16:17:35.723Z,70.17
2023-02-24T16:20:08.524Z,68.66
2023-02-24T16:22:36.138Z,68.15
2023-02-24T16:25:04.251Z,68.37
2023-02-24T16:27:31.474Z,68.47
2023-02-24T16:30:00.339Z,68.74
2023-02-24T16:32:27.677Z,68.80
2023-02-24T16:34:54.996Z,69.13
2023-02-24T16:37:27.583Z,69.01
2023-02-24T16:39:55.433Z,68.90
2023-02-24T16:42:30.997Z,67.35
2023-02-24T16:44:58.013Z,67.01
2023-02-24T16:47:25.971Z,66.20
2023-02-24T16:49:57.941Z,65.69
2023-02-24T16:52:25.183Z,66.15
2023-02-24T16:54:52.276Z,66.00
2023-02-24T16:57:19.264Z,65.97
2023-02-24T16:59:46.531Z,66.25
2023-02-24T17:02:24.447Z,66.67
2023-02-24T17:04:51.506Z,67.02
2023-02-24T17:07:20.912Z,67.41
2023-02-24T17:09:47.956Z,67.74
2023-02-24T17:12:21.358Z,68.60
2023-02-24T17:14:48.671Z,68.36
2023-02-24T17:17:15.829Z,68.44
2023-02-24T17:19:42.871Z,68.44
2023-02-24T17:22:10.537Z,68.95
2023-02-24T17:24:37.542Z,69.33
2023-02-24T17:27:04.779Z,69.61
2023-02-24T17:29:31.870Z,69.93
2023-02-24T17:31:59.159Z,70.12
2023-02-24T17:34:26.357Z,69.78
2023-02-24T17:36:53.407Z,69.97
2023-02-24T17:39:20.374Z,70.17
2023-02-24T17:41:47.386Z,70.39
2023-02-24T17:44:14.427Z,70.43
2023-02-24T17:46:41.495Z,70.45
2023-02-24T17:49:08.976Z,69.94
2023-02-24T17:51:36.113Z,70.19
2023-02-24T17:54:03.541Z,69.60
2023-02-24T17:56:30.586Z,69.45
2023-02-24T17:59:01.143Z,69.74
2023-02-24T18:01:28.746Z,69.13
2023-02-24T18:03:57.509Z,68.82
2023-02-24T18:06:25.414Z,68.25
2023-02-24T18:08:52.462Z,68.06
2023-02-24T18:11:20.525Z,68.52
2023-02-24T18:13:51.006Z,68.07
2023-02-24T18:16:18.590Z,68.04
2023-02-24T18:18:45.763Z,67.66
2023-02-24T18:21:12.820Z,67.66
2023-02-24T18:23:40.527Z,67.59
2023-02-24T18:26:10.327Z,67.46
2023-02-24T18:28:37.916Z,67.29
2023-02-24T18:31:17.494Z,67.62
2023-02-24T18:33:44.958Z,67.22
2023-02-24T18:36:12.717Z,67.00
2023-02-24T18:38:39.876Z,67.16
2023-02-24T18:41:11.838Z,67.91
2023-02-24T18:43:38.965Z,68.43
2023-02-24T18:46:11.337Z,68.50
2023-02-24T18:48:40.126Z,68.02
2023-02-24T18:51:08.447Z,68.03
2023-02-24T18:53:38.226Z,67.74
2023-02-24T18:56:10.893Z,68.31
2023-02-24T18:58:39.877Z,68.48
2023-02-24T19:01:22.778Z,68.56
2023-02-24T19:03:51.711Z,68.83
2023-02-24T19:06:21.541Z,68.92
2023-02-24T19:08:54.728Z,69.17
2023-02-24T19:11:21.751Z,68.68
2023-02-24T19:13:49.067Z,69.09
2023-02-24T19:16:18.589Z,69.27
2023-02-24T19:18:49.418Z,69.66
2023-02-24T19:21:16.424Z,69.66
2023-02-24T19:23:43.469Z,69.77
2023-02-24T19:26:24.152Z,69.84
2023-02-24T19:28:52.272Z,70.36
2023-02-24T19:31:26.945Z,70.82
2023-02-24T19:33:56.751Z,70.75
2023-02-24T19:36:24.920Z,71.28
2023-02-24T19:38:52.538Z,71.16
2023-02-24T19:41:19.886Z,71.66
2023-02-24T19:43:46.902Z,71.75
2023-02-24T19:46:16.422Z,71.68
2023-02-24T19:48:43.741Z,72.38
2023-02-24T19:51:20.878Z,72.29
2023-02-24T19:53:51.450Z,72.36
2023-02-24T19:56:23.574Z,72.90
2023-02-24T19:58:57.016Z,72.92
2023-02-24T20:01:25.806Z,72.73
2023-02-24T20:04:02.413Z,72.83
2023-02-24T20:06:36.516Z,73.02
2023-02-24T20:09:17.710Z,73.24
2023-02-24T20:11:46.104Z,73.48
2023-02-24T20:14:15.856Z,73.52
2023-02-24T20:16:44.321Z,73.93
2023-02-24T20:19:14.188Z,73.95
2023-02-24T20:21:42.134Z,73.93
2023-02-24T20:24:13.894Z,74.14
2023-02-24T20:26:43.761Z,74.29
2023-02-24T20:29:11.527Z,74.43
2023-02-24T20:31:40.027Z,74.96
2023-02-24T20:34:09.301Z,74.78
2023-02-24T20:36:37.174Z,75.00
2023-02-24T20:39:06.677Z,75.05
2023-02-24T20:41:34.602Z,74.85
2023-02-24T20:44:01.827Z,75.26
2023-02-24T20:46:32.042Z,75.30
2023-02-24T20:49:06.766Z,75.26
2023-02-24T20:51:39.676Z,75.40
2023-02-24T20:54:09.372Z,75.88
2023-02-24T20:56:40.582Z,75.62
2023-02-24T20:59:20.300Z,76.11
2023-02-24T21:01:48.659Z,76.34
2023-02-24T21:04:20.094Z,76.40
2023-02-24T21:06:48.161Z,76.39
2023-02-24T21:09:16.349Z,76.54
2023-02-24T21:11:43.509Z,76.87
2023-02-24T21:14:15.919Z,76.55
2023-02-24T21:16:43.036Z,76.63
2023-02-24T21:19:10.071Z,76.41
2023-02-24T21:21:37.059Z,76.63
2023-02-24T21:24:04.969Z,76.45
2023-02-24T21:26:32.042Z,75.86
2023-02-24T21:28:59.397Z,75.87
2023-02-24T21:31:27.594Z,75.27
2023-02-24T21:33:55.423Z,74.81
2023-02-24T21:36:26.149Z,75.12
2023-02-24T21:38:54.881Z,74.59
2023-02-24T21:41:23.773Z,74.79
2023-02-24T21:43:55.907Z,74.39
2023-02-24T21:46:28.090Z,73.81
2023-02-24T21:48:57.991Z,73.76
2023-02-24T21:51:27.294Z,73.81
2023-02-24T21:53:57.160Z,73.99
2023-02-24T21:56:28.549Z,74.44
2023-02-24T21:59:01.905Z,74.36
2023-02-24T22:01:41.479Z,74.74
2023-02-24T22:04:13.558Z,74.26
2023-02-24T22:06:44.859Z,74.14
2023-02-24T22:09:19.966Z,73.95
2023-02-24T22:11:49.874Z,74.15
2023-02-24T22:14:17.684Z,73.74
2023-02-24T22:16:45.161Z,74.39
2023-02-24T22:19:12.648Z,74.41
2023-02-24T22:21:42.422Z,74.52
2023-02-24T22:24:16.369Z,74.63
2023-02-24T22:26:44.773Z,74.66
2023-02-24T22:29:12.310Z,74.12
2023-02-24T22:31:43.419Z,73.92
2023-02-24T22:34:11.047Z,74.14
2023-02-24T22:36:38.253Z,73.89
2023-02-24T22:39:06.709Z,73.70
2023-02-24T22:41:36.247Z,74.19
2023-02-24T22:44:06.166Z,74.27
2023-02-24T22:46:37.408Z,74.14
2023-02-24T22:49:05.639Z,74.40
2023-02-24T22:51:32.913Z,74.71
2023-02-24T22:53:59.923Z,74.78
2023-02-24T22:56:29.218Z,75.21
2023-02-24T22:58:57.624Z,75.74
2023-02-24T23:01:32.135Z,76.41
2023-02-24T23:04:01.707Z,76.57
2023-02-24T23:06:30.805Z,76.98
2023-02-24T23:09:00.221Z,77.21
2023-02-24T23:11:38.144Z,77.72
2023-02-24T23:14:10.023Z,78.23
2023-02-24T23:16:38.700Z,78.01
2023-02-24T23:19:12.906Z,77.94
2023-02-24T23:21:44.333Z,78.11
2023-02-24T23:24:14.370Z,78.32
2023-02-24T23:26:49.059Z,78.24
2023-02-24T23:29:18.332Z,78.01
2023-02-24T23:31:46.218Z,77.96
2023-02-24T23:34:15.181Z,78.07
2023-02-24T23:36:45.292Z,78.00
2023-02-24T23:39:15.801Z,77.81
2023-02-24T23:41:43.406Z,77.71
2023-02-24T23:44:10.708Z,77.17
2023-02-24T23:46:37.834Z,77.75
2023-02-24T23:49:05.723Z,78.18
2023-02-24T23:51:47.192Z,78.00
2023-02-24T23:54:17.288Z,77.46
2023-02-24T23:56:44.417Z,77.02
2023-02-24T23:59:11.967Z,77.60
